createdAt,value
2018-05-01T00:00:11.812Z,0
2018-05-01T00:01:21.895Z,0
2018-05-01T00:02:31.703Z,0
2018-05-01T00:03:41.526Z,0
2018-05-01T00:04:51.609Z,0
2018-05-01T00:06:01.682Z,0
2018-05-01T00:07:11.522Z,0
2018-05-01T00:08:21.627Z,0
2018-05-01T00:09:31.484Z,0
2018-05-01T00:10:41.578Z,0
2018-05-01T00:11:51.906Z,0
2018-05-01T00:13:01.991Z,0
2018-05-01T00:14:11.849Z,0
2018-05-01T00:15:21.935Z,0
2018-05-01T00:16:32.022Z,0
2018-05-01T00:17:42.176Z,0
2018-05-01T00:18:52.028Z,0
2018-05-01T00:20:01.860Z,0
2018-05-01T00:21:14.004Z,0
2018-05-01T00:22:23.815Z,0
2018-05-01T00:23:33.631Z,0
2018-05-01T00:24:43.443Z,0
2018-05-01T00:25:53.537Z,0
2018-05-01T00:27:03.632Z,0
2018-05-01T00:28:13.706Z,0
2018-05-01T00:29:23.523Z,0
2018-05-01T00:30:33.630Z,0
2018-05-01T00:31:43.821Z,0
2018-05-01T00:32:53.901Z,0
2018-05-01T00:34:04.003Z,0
2018-05-01T00:35:14.110Z,0
2018-05-01T00:36:24.399Z,0
2018-05-01T00:37:34.492Z,0
2018-05-01T00:38:44.626Z,0
2018-05-01T00:39:54.207Z,0
2018-05-01T00:41:04.308Z,0
2018-05-01T00:42:14.125Z,0
2018-05-01T00:43:24.230Z,0
2018-05-01T00:44:34.356Z,0
2018-05-01T00:45:44.447Z,0
2018-05-01T00:46:54.529Z,0
2018-05-01T00:48:04.616Z,0
2018-05-01T00:49:14.447Z,0
2018-05-01T00:50:24.553Z,0
2018-05-01T00:51:34.961Z,0
2018-05-01T00:52:45.143Z,0
2018-05-01T00:53:54.977Z,0
2018-05-01T00:55:05.051Z,0
2018-05-01T00:56:15.193Z,0
2018-05-01T00:57:25.267Z,0
2018-05-01T00:58:35.357Z,0
2018-05-01T00:59:45.450Z,0
2018-05-01T01:00:55.293Z,0
2018-05-01T01:02:05.364Z,0
2018-05-01T01:03:15.182Z,0
2018-05-01T01:04:25.025Z,0
2018-05-01T01:05:35.138Z,0
2018-05-01T01:06:45.273Z,0
2018-05-01T01:07:55.498Z,0
2018-05-01T01:09:05.686Z,0
2018-05-01T01:10:15.775Z,0
2018-05-01T01:11:25.907Z,0
2018-05-01T01:12:36.077Z,0
2018-05-01T01:13:46.204Z,0
2018-05-01T01:14:56.302Z,0
2018-05-01T01:16:06.131Z,0
2018-05-01T01:17:15.960Z,0
2018-05-01T01:18:26.083Z,0
2018-05-01T01:19:35.929Z,0
2018-05-01T01:20:45.742Z,0
2018-05-01T01:21:55.603Z,0
2018-05-01T01:23:05.687Z,0
2018-05-01T01:24:15.800Z,0
2018-05-01T01:25:25.646Z,0
2018-05-01T01:26:35.745Z,0
2018-05-01T01:27:45.865Z,0
2018-05-01T01:28:55.705Z,0
2018-05-01T01:30:05.540Z,0
2018-05-01T01:31:15.726Z,0
2018-05-01T01:32:25.825Z,0
2018-05-01T01:33:35.634Z,0
2018-05-01T01:34:45.466Z,0
2018-05-01T01:35:55.297Z,0
2018-05-01T01:37:05.400Z,0
2018-05-01T01:38:15.481Z,0
2018-05-01T01:39:25.587Z,0
2018-05-01T01:40:35.426Z,0
2018-05-01T01:41:45.508Z,0
2018-05-01T01:42:55.629Z,0
2018-05-01T01:44:05.719Z,0
2018-05-01T01:45:15.792Z,0
2018-05-01T01:46:25.880Z,0
2018-05-01T01:47:35.714Z,0
2018-05-01T01:48:45.538Z,0
2018-05-01T01:49:55.093Z,0
2018-05-01T01:51:05.215Z,0
2018-05-01T01:52:15.298Z,0
2018-05-01T01:53:25.393Z,0
2018-05-01T01:54:35.463Z,0
2018-05-01T01:55:45.552Z,0
2018-05-01T01:56:55.399Z,0
2018-05-01T01:58:05.485Z,0
2018-05-01T01:59:15.573Z,0
2018-05-01T02:00:25.376Z,0
2018-05-01T02:01:35.466Z,0
2018-05-01T02:02:45.587Z,0
2018-05-01T02:03:55.677Z,0
2018-05-01T02:05:05.772Z,0
2018-05-01T02:06:15.325Z,0
2018-05-01T02:07:25.425Z,0
2018-05-01T02:08:35.504Z,0
2018-05-01T02:09:45.594Z,0
2018-05-01T02:10:55.688Z,0
2018-05-01T02:12:05.533Z,0
2018-05-01T02:13:15.625Z,0
2018-05-01T02:14:25.701Z,0
2018-05-01T02:15:35.785Z,0
2018-05-01T02:16:45.876Z,0
2018-05-01T02:17:55.992Z,0
2018-05-01T02:19:06.084Z,0
2018-05-01T02:20:16.181Z,0
2018-05-01T02:21:26.321Z,0
2018-05-01T02:22:35.878Z,0
2018-05-01T02:23:45.961Z,0
2018-05-01T02:24:55.792Z,0
2018-05-01T02:26:05.864Z,0
2018-05-01T02:27:16.017Z,0
2018-05-01T02:28:25.840Z,0
2018-05-01T02:29:35.944Z,0
2018-05-01T02:30:46.071Z,0
2018-05-01T02:31:56.152Z,0
2018-05-01T02:33:06.245Z,0
2018-05-01T02:34:16.338Z,0
2018-05-01T02:35:26.479Z,0
2018-05-01T02:36:36.568Z,0
2018-05-01T02:37:46.669Z,0
2018-05-01T02:38:56.500Z,0
2018-05-01T02:40:06.581Z,0
2018-05-01T02:41:17.129Z,0
2018-05-01T02:42:27.343Z,0
2018-05-01T02:43:37.422Z,0
2018-05-01T02:44:47.233Z,0
2018-05-01T02:45:57.469Z,0
2018-05-01T02:47:07.558Z,0
2018-05-01T02:48:17.672Z,0
2018-05-01T02:49:27.773Z,0
2018-05-01T02:50:37.854Z,0
2018-05-01T02:51:47.677Z,0
2018-05-01T02:52:57.516Z,0
2018-05-01T02:54:07.599Z,0
2018-05-01T02:55:17.684Z,0
2018-05-01T02:56:27.775Z,0
2018-05-01T02:57:37.591Z,0
2018-05-01T02:58:47.761Z,0
2018-05-01T02:59:57.834Z,0
2018-05-01T03:01:07.936Z,0
2018-05-01T03:02:17.772Z,0
2018-05-01T03:34:11.559Z,0
2018-05-01T03:35:21.636Z,5
2018-05-01T03:36:31.451Z,5
2018-05-01T03:37:41.500Z,5
2018-05-01T03:38:51.639Z,5
2018-05-01T03:40:01.851Z,5
2018-05-01T03:41:12.019Z,5
2018-05-01T03:42:22.110Z,10
2018-05-01T03:43:32.208Z,10
2018-05-01T03:44:42.287Z,10
2018-05-01T03:45:52.370Z,10
2018-05-01T03:47:02.453Z,15
2018-05-01T03:48:12.518Z,15
2018-05-01T03:49:22.614Z,15
2018-05-01T03:50:32.676Z,20
2018-05-01T03:51:42.549Z,20
2018-05-01T03:52:52.653Z,20
2018-05-01T03:54:02.739Z,25
2018-05-01T03:55:12.574Z,25
2018-05-01T03:56:22.510Z,25
2018-05-01T03:57:32.693Z,25
2018-05-01T03:58:42.785Z,25
2018-05-01T03:59:52.864Z,25
2018-05-01T04:01:02.945Z,30
2018-05-01T04:02:12.899Z,30
2018-05-01T04:03:22.768Z,30
2018-05-01T04:04:32.860Z,30
2018-05-01T04:05:42.942Z,30
2018-05-01T04:06:53.032Z,30
2018-05-01T04:08:03.116Z,30
2018-05-01T04:09:13.246Z,35
2018-05-01T04:10:23.332Z,35
2018-05-01T04:11:33.424Z,35
2018-05-01T04:12:43.237Z,35
2018-05-01T04:13:53.324Z,35
2018-05-01T04:15:03.196Z,40
2018-05-01T04:16:13.029Z,40
2018-05-01T04:17:22.843Z,45
2018-05-01T04:18:32.942Z,45
2018-05-01T04:19:43.109Z,50
2018-05-01T04:20:53.249Z,55
2018-05-01T04:22:03.334Z,70
2018-05-01T04:23:13.416Z,80
2018-05-01T04:24:23.498Z,70
2018-05-01T04:25:33.226Z,70
2018-05-01T04:26:43.379Z,60
2018-05-01T04:27:53.470Z,60
2018-05-01T04:29:03.550Z,75
2018-05-01T04:30:13.630Z,70
2018-05-01T04:31:23.438Z,75
2018-05-01T04:32:33.581Z,75
2018-05-01T04:33:43.738Z,75
2018-05-01T04:34:53.295Z,70
2018-05-01T04:36:03.109Z,70
2018-05-01T04:37:13.184Z,70
2018-05-01T04:38:23.309Z,65
2018-05-01T04:39:33.380Z,65
2018-05-01T04:40:43.195Z,70
2018-05-01T04:41:53.261Z,75
2018-05-01T04:43:03.336Z,75
2018-05-01T04:44:13.425Z,80
2018-05-01T04:45:23.239Z,85
2018-05-01T04:46:33.310Z,85
2018-05-01T04:47:43.397Z,95
2018-05-01T04:48:53.492Z,110
2018-05-01T04:50:03.569Z,130
2018-05-01T04:51:13.660Z,125
2018-05-01T04:52:23.483Z,130
2018-05-01T04:53:33.574Z,150
2018-05-01T04:54:43.666Z,170
2018-05-01T04:55:53.731Z,170
2018-05-01T04:57:03.793Z,185
2018-05-01T04:58:13.881Z,250
2018-05-01T04:59:23.972Z,220
2018-05-01T05:00:34.063Z,260
2018-05-01T05:01:43.935Z,215
2018-05-01T05:02:54.024Z,265
2018-05-01T05:04:04.108Z,315
2018-05-01T05:05:14.188Z,180
2018-05-01T05:06:23.736Z,275
2018-05-01T05:07:33.814Z,275
2018-05-01T05:08:43.886Z,275
2018-05-01T05:09:53.963Z,315
2018-05-01T05:11:04.069Z,350
2018-05-01T05:12:14.136Z,360
2018-05-01T05:13:24.013Z,310
2018-05-01T05:14:33.569Z,230
2018-05-01T05:15:43.783Z,370
2018-05-01T05:16:53.603Z,365
2018-05-01T05:18:03.429Z,350
2018-05-01T05:19:13.607Z,320
2018-05-01T05:20:23.435Z,350
2018-05-01T05:21:33.264Z,335
2018-05-01T05:22:43.343Z,345
2018-05-01T05:23:53.419Z,360
2018-05-01T05:25:03.491Z,360
2018-05-01T05:26:13.580Z,340
2018-05-01T05:27:23.678Z,345
2018-05-01T05:28:33.751Z,310
2018-05-01T05:29:43.846Z,170
2018-05-01T05:30:53.928Z,215
2018-05-01T05:32:04.017Z,305
2018-05-01T05:33:14.098Z,340
2018-05-01T05:34:24.173Z,325
2018-05-01T05:35:34.258Z,325
2018-05-01T05:36:44.348Z,320
2018-05-01T05:37:54.420Z,320
2018-05-01T05:39:04.497Z,315
2018-05-01T05:40:14.055Z,305
2018-05-01T05:41:24.143Z,305
2018-05-01T05:42:34.253Z,305
2018-05-01T05:43:43.814Z,300
2018-05-01T05:44:53.645Z,295
2018-05-01T05:46:03.724Z,295
2018-05-01T05:47:13.549Z,295
2018-05-01T05:48:23.629Z,295
2018-05-01T05:49:33.712Z,285
2018-05-01T05:50:43.803Z,280
2018-05-01T05:51:53.871Z,245
2018-05-01T05:53:03.962Z,165
2018-05-01T05:54:14.063Z,120
2018-05-01T05:55:24.120Z,120
2018-05-01T05:56:34.196Z,120
2018-05-01T05:57:44.269Z,120
2018-05-01T05:58:54.387Z,120
2018-05-01T06:00:04.552Z,120
2018-05-01T06:01:15.010Z,120
2018-05-01T06:02:25.083Z,120
2018-05-01T06:03:35.160Z,120
2018-05-01T06:04:45.242Z,120
2018-05-01T06:05:55.050Z,120
2018-05-01T06:07:05.419Z,130
2018-05-01T06:08:15.244Z,125
2018-05-01T06:09:25.067Z,125
2018-05-01T06:10:35.401Z,125
2018-05-01T06:11:45.505Z,125
2018-05-01T06:12:55.577Z,125
2018-05-01T06:14:05.664Z,130
2018-05-01T06:15:15.724Z,130
2018-05-01T06:16:25.543Z,135
2018-05-01T06:17:35.635Z,145
2018-05-01T06:18:45.721Z,155
2018-05-01T06:19:55.805Z,155
2018-05-01T06:21:05.887Z,155
2018-05-01T06:22:16.151Z,130
2018-05-01T06:23:25.697Z,125
2018-05-01T06:24:35.791Z,150
2018-05-01T06:25:45.885Z,135
2018-05-01T06:26:55.973Z,120
2018-05-01T06:28:06.067Z,140
2018-05-01T06:29:15.702Z,150
2018-05-01T06:30:25.781Z,165
2018-05-01T06:31:35.866Z,175
2018-05-01T06:32:45.963Z,180
2018-05-01T06:33:56.084Z,155
2018-05-01T06:35:06.231Z,155
2018-05-01T06:36:16.320Z,185
2018-05-01T06:37:26.210Z,180
2018-05-01T06:38:35.755Z,160
2018-05-01T06:39:45.563Z,145
2018-05-01T06:40:55.723Z,160
2018-05-01T06:42:05.797Z,185
2018-05-01T06:43:15.899Z,195
2018-05-01T06:44:26.005Z,190
2018-05-01T06:45:35.829Z,170
2018-05-01T06:46:45.726Z,155
2018-05-01T06:47:55.803Z,145
2018-05-01T06:49:05.913Z,140
2018-05-01T06:50:16.011Z,130
2018-05-01T06:51:26.078Z,140
2018-05-01T06:52:36.184Z,155
2018-05-01T06:53:46.013Z,165
2018-05-01T06:54:56.109Z,175
2018-05-01T06:56:06.199Z,195
2018-05-01T06:57:16.276Z,200
2018-05-01T06:58:26.408Z,185
2018-05-01T06:59:36.485Z,185
2018-05-01T07:00:46.306Z,175
2018-05-01T07:01:56.145Z,180
2018-05-01T07:03:05.991Z,200
2018-05-01T07:04:15.950Z,185
2018-05-01T07:05:25.508Z,200
2018-05-01T07:06:35.607Z,210
2018-05-01T07:07:45.711Z,215
2018-05-01T07:08:55.514Z,200
2018-05-01T07:10:05.674Z,215
2018-05-01T07:11:15.763Z,200
2018-05-01T07:12:25.338Z,195
2018-05-01T07:13:35.419Z,185
2018-05-01T07:14:45.513Z,180
2018-05-01T07:15:55.619Z,200
2018-05-01T07:17:05.801Z,200
2018-05-01T07:18:15.870Z,175
2018-05-01T07:19:25.744Z,170
2018-05-01T07:20:35.570Z,170
2018-05-01T07:21:45.705Z,185
2018-05-01T07:22:55.790Z,170
2018-05-01T07:24:05.885Z,170
2018-05-01T07:25:15.726Z,175
2018-05-01T07:26:25.557Z,170
2018-05-01T07:27:35.724Z,160
2018-05-01T07:28:45.473Z,155
2018-05-01T07:29:55.281Z,175
2018-05-01T07:31:05.371Z,170
2018-05-01T07:32:15.439Z,190
2018-05-01T07:33:25.533Z,205
2018-05-01T07:34:35.605Z,210
2018-05-01T07:35:45.237Z,210
2018-05-01T07:36:55.323Z,210
2018-05-01T07:38:05.414Z,205
2018-05-01T07:39:14.972Z,195
2018-05-01T07:40:25.070Z,200
2018-05-01T07:41:35.366Z,165
2018-05-01T07:42:44.937Z,165
2018-05-01T07:43:55.044Z,175
2018-05-01T07:45:05.149Z,175
2018-05-01T07:46:15.238Z,185
2018-05-01T07:47:24.549Z,225
2018-05-01T07:48:34.653Z,180
2018-05-01T07:49:44.765Z,165
2018-05-01T07:50:54.872Z,185
2018-05-01T07:52:04.941Z,180
2018-05-01T07:53:15.026Z,210
2018-05-01T07:54:25.151Z,215
2018-05-01T07:55:35.248Z,210
2018-05-01T07:56:45.372Z,185
2018-05-01T07:57:55.193Z,165
2018-05-01T07:59:05.278Z,170
2018-05-01T08:00:15.354Z,185
2018-05-01T08:01:25.435Z,190
2018-05-01T08:02:35.499Z,195
2018-05-01T08:03:45.335Z,220
2018-05-01T08:04:55.427Z,220
2018-05-01T08:06:05.586Z,225
2018-05-01T08:07:15.413Z,220
2018-05-01T08:08:25.501Z,200
2018-05-01T08:09:35.582Z,170
2018-05-01T08:10:45.666Z,195
2018-05-01T08:11:57.841Z,200
2018-05-01T08:13:07.672Z,190
2018-05-01T08:14:17.816Z,170
2018-05-01T08:15:27.685Z,175
2018-05-01T08:16:37.513Z,175
2018-05-01T08:17:47.343Z,180
2018-05-01T08:18:57.429Z,190
2018-05-01T08:20:07.523Z,190
2018-05-01T08:21:17.374Z,195
2018-05-01T08:22:27.472Z,190
2018-05-01T08:23:37.460Z,185
2018-05-01T08:24:47.209Z,190
2018-05-01T08:25:57.305Z,190
2018-05-01T08:27:07.409Z,190
2018-05-01T08:28:17.496Z,185
2018-05-01T08:29:27.605Z,195
2018-05-01T08:30:38.052Z,200
2018-05-01T08:31:48.244Z,200
2018-05-01T08:32:58.362Z,195
2018-05-01T08:34:08.198Z,195
2018-05-01T08:35:18.327Z,180
2018-05-01T08:36:28.460Z,180
2018-05-01T08:37:38.784Z,190
2018-05-01T08:38:48.923Z,205
2018-05-01T08:39:58.540Z,210
2018-05-01T08:41:08.382Z,195
2018-05-01T08:42:18.513Z,195
2018-05-01T08:43:28.635Z,190
2018-05-01T08:44:38.828Z,180
2018-05-01T08:45:48.982Z,180
2018-05-01T08:46:59.102Z,185
2018-05-01T08:48:09.114Z,185
2018-05-01T08:49:18.965Z,190
2018-05-01T08:50:29.072Z,190
2018-05-01T08:51:39.179Z,195
2018-05-01T08:52:49.325Z,190
2018-05-01T08:53:59.268Z,190
2018-05-01T08:55:09.414Z,195
2018-05-01T08:56:19.563Z,195
2018-05-01T08:57:29.918Z,190
2018-05-01T08:58:40.030Z,190
2018-05-01T08:59:50.201Z,185
2018-05-01T09:01:00.291Z,185
2018-05-01T09:02:10.394Z,190
2018-05-01T09:03:20.238Z,190
2018-05-01T09:04:30.339Z,190
2018-05-01T09:05:40.432Z,190
2018-05-01T09:06:50.280Z,190
2018-05-01T09:08:00.126Z,190
2018-05-01T09:09:10.244Z,190
2018-05-01T09:10:20.353Z,185
2018-05-01T09:11:30.249Z,180
2018-05-01T09:12:40.079Z,195
2018-05-01T09:13:49.911Z,195
2018-05-01T09:15:00.015Z,180
2018-05-01T09:16:09.875Z,200
2018-05-01T09:17:20.017Z,200
2018-05-01T09:18:30.220Z,210
2018-05-01T09:19:40.078Z,220
2018-05-01T09:20:50.170Z,225
2018-05-01T09:21:59.997Z,230
2018-05-01T09:23:10.132Z,230
2018-05-01T09:24:19.960Z,235
2018-05-01T09:25:29.686Z,235
2018-05-01T09:26:39.796Z,230
2018-05-01T09:27:49.646Z,215
2018-05-01T09:28:59.809Z,215
2018-05-01T09:30:09.940Z,210
2018-05-01T09:31:20.040Z,185
2018-05-01T09:32:29.657Z,195
2018-05-01T09:33:39.774Z,225
2018-05-01T09:34:49.749Z,220
2018-05-01T09:35:59.852Z,195
2018-05-01T09:37:09.958Z,195
2018-05-01T09:38:19.813Z,195
2018-05-01T09:39:29.936Z,195
2018-05-01T09:40:40.085Z,215
2018-05-01T09:41:50.279Z,235
2018-05-01T09:43:00.479Z,240
2018-05-01T09:44:10.324Z,255
2018-05-01T09:45:20.153Z,265
2018-05-01T09:46:30.319Z,270
2018-05-01T09:47:40.692Z,275
2018-05-01T09:48:50.923Z,295
2018-05-01T09:50:01.014Z,300
2018-05-01T09:51:11.121Z,315
2018-05-01T09:52:21.343Z,325
2018-05-01T09:53:31.813Z,315
2018-05-01T09:54:42.047Z,300
2018-05-01T09:55:52.143Z,300
2018-05-01T09:57:02.233Z,300
2018-05-01T09:58:12.368Z,305
2018-05-01T09:59:22.477Z,310
2018-05-01T10:00:32.579Z,310
2018-05-01T10:01:42.841Z,310
2018-05-01T10:02:52.950Z,310
2018-05-01T10:04:03.106Z,320
2018-05-01T10:05:13.184Z,315
2018-05-01T10:06:23.293Z,320
2018-05-01T10:07:33.389Z,320
2018-05-01T10:08:43.233Z,315
2018-05-01T10:09:53.388Z,290
2018-05-01T10:11:03.216Z,275
2018-05-01T10:12:13.074Z,280
2018-05-01T10:13:22.938Z,285
2018-05-01T10:14:33.009Z,295
2018-05-01T10:15:43.160Z,310
2018-05-01T10:16:53.291Z,315
2018-05-01T10:18:03.394Z,325
2018-05-01T10:19:13.511Z,330
2018-05-01T10:20:23.359Z,325
2018-05-01T10:21:33.464Z,320
2018-05-01T10:22:43.570Z,325
2018-05-01T10:23:53.395Z,320
2018-05-01T10:25:03.497Z,320
2018-05-01T10:26:13.579Z,325
2018-05-01T10:27:23.418Z,320
2018-05-01T10:28:33.513Z,320
2018-05-01T10:29:43.616Z,310
2018-05-01T10:30:53.716Z,305
2018-05-01T10:32:03.019Z,305
2018-05-01T10:33:13.263Z,310
2018-05-01T10:34:23.439Z,335
2018-05-01T10:35:33.276Z,335
2018-05-01T10:36:43.371Z,330
2018-05-01T10:37:53.206Z,325
2018-05-01T10:39:04.096Z,335
2018-05-01T10:40:13.861Z,335
2018-05-01T10:41:23.962Z,325
2018-05-01T10:42:34.118Z,335
2018-05-01T10:43:43.684Z,335
2018-05-01T10:44:53.785Z,325
2018-05-01T10:46:03.929Z,320
2018-05-01T10:47:14.056Z,300
2018-05-01T10:48:24.185Z,280
2018-05-01T10:49:34.457Z,275
2018-05-01T10:50:44.619Z,240
2018-05-01T10:51:54.222Z,235
2018-05-01T10:53:04.320Z,255
2018-05-01T10:54:14.454Z,240
2018-05-01T10:55:24.563Z,225
2018-05-01T10:56:34.729Z,230
2018-05-01T10:57:44.557Z,225
2018-05-01T10:58:54.700Z,215
2018-05-01T11:00:04.836Z,270
2018-05-01T11:01:14.803Z,300
2018-05-01T11:02:25.075Z,305
2018-05-01T11:03:35.496Z,300
2018-05-01T11:04:45.662Z,265
2018-05-01T11:05:55.622Z,250
2018-05-01T11:07:05.842Z,260
2018-05-01T11:08:16.027Z,260
2018-05-01T11:09:26.313Z,270
2018-05-01T11:10:36.561Z,270
2018-05-01T11:11:46.725Z,270
2018-05-01T11:12:56.930Z,300
2018-05-01T11:14:07.105Z,295
2018-05-01T11:15:17.237Z,300
2018-05-01T11:16:27.085Z,295
2018-05-01T11:17:37.671Z,300
2018-05-01T11:18:47.811Z,295
2018-05-01T11:19:58.019Z,295
2018-05-01T11:21:08.279Z,300
2018-05-01T11:22:18.486Z,275
2018-05-01T11:23:28.631Z,280
2018-05-01T11:24:41.176Z,270
2018-05-01T11:25:51.966Z,300
2018-05-01T11:27:02.114Z,305
2018-05-01T11:28:12.214Z,280
2018-05-01T11:29:22.117Z,245
2018-05-01T11:30:32.228Z,235
2018-05-01T11:31:42.408Z,265
2018-05-01T11:32:52.505Z,275
2018-05-01T11:34:02.091Z,245
2018-05-01T11:35:12.188Z,270
2018-05-01T11:36:22.293Z,265
2018-05-01T11:37:32.380Z,265
2018-05-01T11:38:42.477Z,270
2018-05-01T11:39:52.577Z,290
2018-05-01T11:41:02.417Z,290
2018-05-01T11:42:12.540Z,290
2018-05-01T11:43:22.432Z,280
2018-05-01T11:44:32.634Z,260
2018-05-01T11:45:42.808Z,225
2018-05-01T11:46:52.927Z,225
2018-05-01T11:48:03.062Z,210
2018-05-01T11:49:13.229Z,180
2018-05-01T11:50:23.090Z,205
2018-05-01T11:51:33.198Z,195
2018-05-01T11:52:43.056Z,220
2018-05-01T11:53:53.513Z,205
2018-05-01T11:55:03.435Z,210
2018-05-01T11:56:13.618Z,230
2018-05-01T11:57:23.720Z,205
2018-05-01T11:58:33.914Z,255
2018-05-01T12:07:25.617Z,205
2018-05-01T12:08:35.753Z,190
2018-05-01T12:09:45.858Z,180
2018-05-01T12:10:55.740Z,180
2018-05-01T12:12:05.846Z,195
2018-05-01T12:13:15.733Z,200
2018-05-01T12:14:25.864Z,195
2018-05-01T12:15:35.984Z,195
2018-05-01T12:16:46.077Z,205
2018-05-01T12:17:56.442Z,230
2018-05-01T12:19:06.752Z,225
2018-05-01T12:20:17.266Z,235
2018-05-01T12:21:28.153Z,230
2018-05-01T12:22:38.340Z,240
2018-05-01T12:23:48.951Z,240
2018-05-01T12:24:59.806Z,245
2018-05-01T12:26:10.510Z,260
2018-05-01T12:27:21.155Z,250
2018-05-01T12:28:31.544Z,255
2018-05-01T12:29:42.486Z,255
2018-05-01T12:30:53.150Z,260
2018-05-01T12:32:03.784Z,260
2018-05-01T12:33:14.337Z,265
2018-05-01T12:34:25.306Z,270
2018-05-01T12:35:35.554Z,275
2018-05-01T12:36:46.444Z,275
2018-05-01T12:37:56.484Z,260
2018-05-01T12:39:07.544Z,265
2018-05-01T12:40:18.256Z,255
2018-05-01T12:41:29.323Z,240
2018-05-01T12:42:40.138Z,240
2018-05-01T12:43:50.253Z,250
2018-05-01T12:45:00.136Z,240
2018-05-01T12:46:09.994Z,210
2018-05-01T12:47:20.092Z,210
2018-05-01T12:48:30.833Z,210
2018-05-01T12:49:40.937Z,195
2018-05-01T12:50:51.068Z,185
2018-05-01T12:52:00.916Z,180
2018-05-01T12:53:11.012Z,185
2018-05-01T12:54:21.224Z,185
2018-05-01T12:55:31.357Z,180
2018-05-01T12:56:41.466Z,175
2018-05-01T12:57:51.558Z,180
2018-05-01T12:59:01.668Z,185
2018-05-01T13:00:11.796Z,195
2018-05-01T13:01:21.900Z,215
2018-05-01T13:02:31.989Z,230
2018-05-01T13:03:42.083Z,265
2018-05-01T13:04:52.172Z,305
2018-05-01T13:06:02.128Z,305
2018-05-01T13:07:12.370Z,260
2018-05-01T13:08:22.209Z,255
2018-05-01T13:09:32.300Z,255
2018-05-01T13:10:42.395Z,225
2018-05-01T13:11:52.229Z,210
2018-05-01T13:13:02.341Z,195
2018-05-01T13:14:11.917Z,195
2018-05-01T13:15:21.474Z,185
2018-05-01T13:16:31.577Z,185
2018-05-01T13:17:41.705Z,185
2018-05-01T13:18:51.791Z,180
2018-05-01T13:20:01.874Z,180
2018-05-01T13:21:11.973Z,180
2018-05-01T13:22:22.172Z,185
2018-05-01T13:23:32.002Z,190
2018-05-01T13:24:42.124Z,195
2018-05-01T13:25:51.957Z,200
2018-05-01T13:27:02.066Z,205
2018-05-01T13:28:11.907Z,195
2018-05-01T13:29:22.096Z,190
2018-05-01T13:30:32.185Z,190
2018-05-01T13:31:42.278Z,195
2018-05-01T13:32:52.452Z,205
2018-05-01T13:34:02.568Z,210
2018-05-01T13:35:12.701Z,220
2018-05-01T13:36:22.780Z,235
2018-05-01T13:37:32.903Z,235
2018-05-01T13:38:43.035Z,235
2018-05-01T13:39:53.144Z,235
2018-05-01T13:41:03.278Z,245
2018-05-01T13:42:13.334Z,280
2018-05-01T13:43:23.426Z,275
2018-05-01T13:44:33.529Z,275
2018-05-01T13:45:43.445Z,275
2018-05-01T13:46:53.621Z,270
2018-05-01T13:48:03.712Z,255
2018-05-01T13:49:13.483Z,255
2018-05-01T13:50:23.586Z,265
2018-05-01T13:51:33.716Z,250
2018-05-01T13:52:43.967Z,225
2018-05-01T13:53:53.807Z,240
2018-05-01T13:55:03.905Z,195
2018-05-01T13:56:13.723Z,190
2018-05-01T13:57:24.013Z,220
2018-05-01T13:58:34.177Z,225
2018-05-01T13:59:44.266Z,205
2018-05-01T14:00:54.496Z,185
2018-05-01T14:02:04.327Z,185
2018-05-01T14:03:14.451Z,205
2018-05-01T14:04:24.619Z,220
2018-05-01T14:05:34.723Z,235
2018-05-01T14:06:44.554Z,260
2018-05-01T14:07:54.402Z,275
2018-05-01T14:09:04.217Z,280
2018-05-01T14:10:14.349Z,275
2018-05-01T14:11:24.450Z,275
2018-05-01T14:12:34.543Z,270
2018-05-01T14:13:44.634Z,245
2018-05-01T14:14:54.734Z,220
2018-05-01T14:16:04.906Z,230
2018-05-01T14:17:15.009Z,250
2018-05-01T14:18:25.112Z,245
2018-05-01T14:19:34.925Z,250
2018-05-01T14:20:45.038Z,240
2018-05-01T14:21:55.183Z,245
2018-05-01T14:23:05.279Z,260
2018-05-01T14:24:15.122Z,280
2018-05-01T14:25:25.252Z,275
2018-05-01T14:26:35.464Z,275
2018-05-01T14:27:45.305Z,270
2018-05-01T14:28:55.406Z,265
2018-05-01T14:30:05.517Z,245
2018-05-01T14:31:15.360Z,225
2018-05-01T14:32:25.203Z,220
2018-05-01T14:33:35.311Z,215
2018-05-01T14:34:45.408Z,210
2018-05-01T14:35:55.525Z,210
2018-05-01T14:37:05.641Z,200
2018-05-01T14:38:15.730Z,200
2018-05-01T14:39:25.073Z,195
2018-05-01T14:40:35.178Z,185
2018-05-01T14:41:45.536Z,185
2018-05-01T14:42:55.638Z,185
2018-05-01T14:44:05.716Z,185
2018-05-01T14:45:15.805Z,195
2018-05-01T14:46:25.901Z,195
2018-05-01T14:47:35.998Z,200
2018-05-01T14:48:46.092Z,190
2018-05-01T14:49:56.174Z,190
2018-05-01T14:51:06.023Z,190
2018-05-01T14:52:16.140Z,190
2018-05-01T14:53:26.245Z,205
2018-05-01T14:54:36.115Z,210
2018-05-01T14:55:46.211Z,205
2018-05-01T14:56:56.385Z,200
2018-05-01T14:58:06.468Z,230
2018-05-01T14:59:16.296Z,230
2018-05-01T15:00:26.102Z,215
2018-05-01T15:01:36.567Z,215
2018-05-01T15:02:46.832Z,220
2018-05-01T15:03:56.933Z,225
2018-05-01T15:05:07.036Z,225
2018-05-01T15:06:16.866Z,215
2018-05-01T15:07:26.984Z,215
2018-05-01T15:08:37.083Z,210
2018-05-01T15:09:47.188Z,195
2018-05-01T15:10:57.316Z,180
2018-05-01T15:12:07.409Z,185
2018-05-01T15:13:17.530Z,180
2018-05-01T15:14:27.691Z,175
2018-05-01T15:15:37.809Z,190
2018-05-01T15:16:47.664Z,195
2018-05-01T15:17:57.784Z,170
2018-05-01T15:19:07.903Z,170
2018-05-01T15:20:17.819Z,165
2018-05-01T15:21:27.919Z,165
2018-05-01T15:22:38.027Z,160
2018-05-01T15:23:47.858Z,160
2018-05-01T15:24:57.947Z,155
2018-05-01T15:26:08.092Z,150
2018-05-01T15:27:18.199Z,145
2018-05-01T15:28:28.331Z,145
2018-05-01T15:29:38.425Z,140
2018-05-01T15:30:48.529Z,130
2018-05-01T15:31:58.634Z,125
2018-05-01T15:33:08.456Z,125
2018-05-01T15:34:18.554Z,120
2018-05-01T15:35:28.390Z,125
2018-05-01T15:36:38.242Z,125
2018-05-01T15:37:48.459Z,125
2018-05-01T15:38:58.323Z,125
2018-05-01T15:40:08.450Z,125
2018-05-01T15:41:18.549Z,120
2018-05-01T15:42:28.672Z,115
2018-05-01T15:43:38.840Z,115
2018-05-01T15:44:48.943Z,110
2018-05-01T15:45:59.022Z,110
2018-05-01T15:47:09.111Z,110
2018-05-01T15:48:19.235Z,110
2018-05-01T15:49:29.395Z,110
2018-05-01T15:50:39.501Z,115
2018-05-01T15:51:49.539Z,115
2018-05-01T15:52:59.404Z,115
2018-05-01T15:54:09.538Z,120
2018-05-01T15:55:19.407Z,125
2018-05-01T15:56:29.506Z,125
2018-05-01T15:57:39.610Z,125
2018-05-01T15:58:49.739Z,115
2018-05-01T15:59:59.583Z,110
2018-05-01T16:01:09.744Z,105
2018-05-01T16:02:19.858Z,105
2018-05-01T16:03:29.713Z,100
2018-05-01T16:04:39.865Z,100
2018-05-01T16:05:49.719Z,100
2018-05-01T16:06:59.877Z,105
2018-05-01T16:08:10.001Z,105
2018-05-01T16:09:19.823Z,105
2018-05-01T16:10:29.939Z,105
2018-05-01T16:11:39.772Z,105
2018-05-01T16:12:49.932Z,95
2018-05-01T16:14:00.131Z,90
2018-05-01T16:15:10.235Z,85
2018-05-01T16:16:20.359Z,80
2018-05-01T16:17:30.474Z,75
2018-05-01T16:18:40.319Z,70
2018-05-01T16:19:50.433Z,70
2018-05-01T16:21:00.692Z,70
2018-05-01T16:22:10.802Z,70
2018-05-01T16:23:20.925Z,65
2018-05-01T16:24:30.832Z,65
2018-05-01T16:25:40.950Z,65
2018-05-01T16:26:51.066Z,65
2018-05-01T16:28:00.914Z,65
2018-05-01T16:29:11.029Z,60
2018-05-01T16:30:20.888Z,60
2018-05-01T16:31:30.727Z,60
2018-05-01T16:32:40.872Z,55
2018-05-01T16:33:50.685Z,55
2018-05-01T16:35:00.945Z,55
2018-05-01T16:36:11.343Z,55
2018-05-01T16:37:21.705Z,60
2018-05-01T16:38:31.932Z,60
2018-05-01T16:39:42.050Z,65
2018-05-01T16:40:52.186Z,65
2018-05-01T16:42:02.275Z,70
2018-05-01T16:43:12.418Z,70
2018-05-01T16:44:22.539Z,70
2018-05-01T16:45:32.731Z,75
2018-05-01T16:46:42.934Z,70
2018-05-01T16:47:53.040Z,75
2018-05-01T16:49:03.158Z,75
2018-05-01T16:50:13.357Z,80
2018-05-01T16:51:23.496Z,80
2018-05-01T16:52:33.591Z,80
2018-05-01T16:53:43.737Z,80
2018-05-01T16:54:53.849Z,80
2018-05-01T16:56:04.069Z,75
2018-05-01T16:57:14.207Z,70
2018-05-01T16:58:24.322Z,65
2018-05-01T16:59:34.417Z,65